createdAt,value
2022-11-23T00:04:25.841Z,16.20
2022-11-23T00:09:26.684Z,17.85
2022-11-23T00:14:27.514Z,18.15
2022-11-23T00:19:29.749Z,18.58
2022-11-23T00:24:30.757Z,17.30
2022-11-23T00:29:31.797Z,16.83
2022-11-23T00:34:34.104Z,17.58
2022-11-23T00:39:34.867Z,17.85
2022-11-23T00:44:35.656Z,17.25
2022-11-23T00:49:37.784Z,15.50
2022-11-23T00:54:38.641Z,16.83
2022-11-23T00:59:40.840Z,16.08
2022-11-23T01:04:43.002Z,16.58
2022-11-23T01:09:43.769Z,16.02
2022-11-23T01:14:46.592Z,16.42
2022-11-23T01:19:48.733Z,17.00
2022-11-23T01:24:51.367Z,16.75
2022-11-23T01:29:52.140Z,16.90
2022-11-23T01:34:55.300Z,15.80
2022-11-23T01:39:56.055Z,16.75
2022-11-23T01:45:39.367Z,16.75
2022-11-23T01:50:43.161Z,16.50
2022-11-23T01:55:44.492Z,17.27
2022-11-23T02:00:46.100Z,17.08
2022-11-23T02:05:54.283Z,16.90
2022-11-23T02:10:56.760Z,16.63
2022-11-23T02:15:59.891Z,17.35
2022-11-23T02:21:04.103Z,17.42
2022-11-23T02:26:10.588Z,16.98
2022-11-23T02:31:12.865Z,16.92
2022-11-23T02:36:35.489Z,17.27
2022-11-23T02:41:42.631Z,16.95
2022-11-23T02:46:43.607Z,16.33
2022-11-23T02:51:44.621Z,17.70
2022-11-23T02:56:46.816Z,16.73
2022-11-23T03:01:47.718Z,18.45
2022-11-23T03:06:48.551Z,17.67
2022-11-23T03:11:50.712Z,18.15
2022-11-23T03:16:51.517Z,18.52
2022-11-23T03:21:53.942Z,17.77
2022-11-23T03:26:56.714Z,18.35
2022-11-23T03:31:57.666Z,17.38
2022-11-23T03:36:58.853Z,18.38
2022-11-23T03:42:01.128Z,16.55
2022-11-23T03:47:06.555Z,16.52
2022-11-23T03:52:09.387Z,18.13
2022-11-23T03:57:11.562Z,17.35
2022-11-23T04:02:12.360Z,16.23
2022-11-23T04:07:21.048Z,17.25
2022-11-23T04:12:26.996Z,17.58
2022-11-23T04:17:27.747Z,15.50
2022-11-23T04:22:28.632Z,17.00
2022-11-23T04:27:30.745Z,16.17
2022-11-23T04:32:31.747Z,15.75
2022-11-23T04:37:33.779Z,18.42
2022-11-23T04:42:36.548Z,17.17
2022-11-23T04:47:37.298Z,16.45
2022-11-23T04:52:43.152Z,17.67
2022-11-23T04:57:52.192Z,16.67
2022-11-23T05:02:53.014Z,17.02
2022-11-23T05:07:59.189Z,17.77
2022-11-23T05:13:12.599Z,17.13
2022-11-23T05:18:13.662Z,16.88
2022-11-23T05:23:14.969Z,18.15
2022-11-23T05:33:45.995Z,18.42
2022-11-23T05:38:48.592Z,18.83
2022-11-23T05:43:58.553Z,18.45
2022-11-23T05:49:02.227Z,17.30
2022-11-23T05:54:07.311Z,19.27
2022-11-23T05:59:16.761Z,19.52
2022-11-23T06:04:22.706Z,19.65
2022-11-23T06:09:23.644Z,16.95
2022-11-23T06:14:28.429Z,19.13
2022-11-23T06:19:31.221Z,19.38
2022-11-23T06:24:32.944Z,19.10
2022-11-23T06:30:00.733Z,18.65
2022-11-23T06:35:03.764Z,18.55
2022-11-23T06:40:10.052Z,17.05
2022-11-23T06:45:13.131Z,18.73
2022-11-23T06:50:14.624Z,19.02
2022-11-23T06:55:17.295Z,20.00
2022-11-23T07:00:20.966Z,19.15
2022-11-23T07:05:22.636Z,19.00
2022-11-23T07:10:23.527Z,20.13
2022-11-23T07:15:30.010Z,18.27
2022-11-23T07:20:30.866Z,18.58
2022-11-23T07:25:32.490Z,18.65
2022-11-23T07:30:37.332Z,19.88
2022-11-23T07:35:40.634Z,19.40
2022-11-23T07:40:42.365Z,19.58
2022-11-23T07:45:58.065Z,19.33
2022-11-23T07:50:58.833Z,17.85
2022-11-23T07:55:59.633Z,19.70
2022-11-23T08:01:01.769Z,17.45
2022-11-23T08:06:02.620Z,18.65
2022-11-23T08:11:03.396Z,16.45
2022-11-23T08:16:05.752Z,18.08
2022-11-23T08:21:06.861Z,17.75
2022-11-23T08:26:13.185Z,16.55
2022-11-23T08:31:15.933Z,17.77
2022-11-23T08:36:16.753Z,18.92
2022-11-23T08:41:20.449Z,18.05
2022-11-23T08:46:22.570Z,17.52
2022-11-23T08:51:23.471Z,18.50
2022-11-23T08:56:24.484Z,17.90
2022-11-23T09:01:26.727Z,18.05
2022-11-23T09:06:29.277Z,17.88
2022-11-23T09:11:30.143Z,16.80
2022-11-23T09:16:34.030Z,16.70
2022-11-23T09:21:36.140Z,15.55
2022-11-23T09:26:37.700Z,16.50
2022-11-23T09:31:40.052Z,15.15
2022-11-23T09:36:42.905Z,16.23
2022-11-23T09:41:54.639Z,14.77
2022-11-23T09:47:12.528Z,16.55
2022-11-23T09:52:19.136Z,15.18
2022-11-23T09:57:22.788Z,13.70
2022-11-23T10:02:28.827Z,15.63
2022-11-23T10:07:43.199Z,13.48
2022-11-23T10:12:52.458Z,13.25
2022-11-23T10:18:19.161Z,13.40
2022-11-23T10:23:35.599Z,14.45
2022-11-23T10:28:37.464Z,13.43
2022-11-23T10:33:44.200Z,12.13
2022-11-23T10:38:45.623Z,13.32
2022-11-23T10:43:52.351Z,13.27
2022-11-23T10:48:55.531Z,13.18
2022-11-23T10:54:04.892Z,13.27
2022-11-23T10:59:06.355Z,13.65
2022-11-23T11:04:25.427Z,12.30
2022-11-23T11:09:26.404Z,12.35
2022-11-23T11:14:27.915Z,12.55
2022-11-23T11:19:32.740Z,12.70
2022-11-23T11:24:38.623Z,11.30
2022-11-23T11:29:49.220Z,11.50
2022-11-23T11:34:57.572Z,10.70
2022-11-23T11:40:04.311Z,10.88
2022-11-23T11:45:12.370Z,10.90
2022-11-23T11:50:21.520Z,10.30
2022-11-23T11:55:26.148Z,10.35
2022-11-23T12:00:29.236Z,9.40
2022-11-23T12:05:38.969Z,10.30
2022-11-23T12:10:47.091Z,10.32
2022-11-23T12:15:52.968Z,10.45
2022-11-23T12:21:01.134Z,10.65
2022-11-23T12:26:13.820Z,9.77
2022-11-23T12:31:24.668Z,9.02
2022-11-23T12:36:55.364Z,9.18
2022-11-23T12:42:05.331Z,9.68
2022-11-23T12:47:16.213Z,10.93
2022-11-23T12:52:30.992Z,10.40
2022-11-23T12:57:39.388Z,11.90
2022-11-23T13:03:11.006Z,12.10
2022-11-23T13:08:37.236Z,12.25
2022-11-23T13:13:54.171Z,16.05
2022-11-23T13:19:09.239Z,14.57
2022-11-23T13:24:27.148Z,16.25
2022-11-23T13:29:48.536Z,14.75
2022-11-23T13:34:51.080Z,15.57
2022-11-23T13:40:04.990Z,15.43
2022-11-23T13:45:24.685Z,16.52
2022-11-23T13:50:27.073Z,16.00
2022-11-23T13:55:35.443Z,15.77
2022-11-23T14:00:47.889Z,15.50
2022-11-23T14:06:00.032Z,16.70
2022-11-23T14:11:10.580Z,15.57
2022-11-23T14:16:18.169Z,16.17
2022-11-23T14:21:27.260Z,15.77
2022-11-23T14:26:36.388Z,15.93
2022-11-23T14:31:44.756Z,16.63
2022-11-23T14:36:55.200Z,15.90
2022-11-23T14:42:02.662Z,15.48
2022-11-23T14:47:05.242Z,16.63
2022-11-23T14:52:06.864Z,14.98
2022-11-23T14:57:13.531Z,16.20
2022-11-23T15:02:18.628Z,17.52
2022-11-23T15:07:23.620Z,15.65
2022-11-23T15:12:28.250Z,14.95
2022-11-23T15:17:29.065Z,15.82
2022-11-23T15:22:31.214Z,15.88
2022-11-23T15:27:33.385Z,17.20
2022-11-23T15:32:35.090Z,15.80
2022-11-23T15:37:43.913Z,15.95
2022-11-23T15:42:48.414Z,16.08
2022-11-23T15:47:49.347Z,16.88
2022-11-23T15:52:50.189Z,15.85
2022-11-23T15:57:55.193Z,15.27
2022-11-23T16:03:22.427Z,17.58
2022-11-23T16:08:26.274Z,16.50
2022-11-23T16:13:39.519Z,17.95
2022-11-23T16:18:45.452Z,17.63
2022-11-23T16:23:50.741Z,18.10
2022-11-23T16:28:58.597Z,17.77
2022-11-23T16:33:59.431Z,18.55
2022-11-23T16:39:05.333Z,18.08
2022-11-23T16:44:08.133Z,18.45
2022-11-23T16:49:16.984Z,19.50
2022-11-23T16:54:23.404Z,17.67
2022-11-23T16:59:30.072Z,20.17
2022-11-23T17:04:31.222Z,19.38
2022-11-23T17:09:32.802Z,18.67
2022-11-23T17:14:45.865Z,21.55
2022-11-23T17:19:48.585Z,21.77
2022-11-23T17:24:52.623Z,19.98
2022-11-23T17:29:58.486Z,21.35
2022-11-23T17:35:00.800Z,20.52
2022-11-23T17:40:02.129Z,21.20
2022-11-23T17:45:04.590Z,21.40
2022-11-23T17:50:07.302Z,21.40
2022-11-23T17:55:09.480Z,20.65
2022-11-23T18:00:17.746Z,21.48
2022-11-23T18:05:21.779Z,21.65
2022-11-23T18:10:23.410Z,20.92
2022-11-23T18:15:25.977Z,21.60
2022-11-23T18:20:26.792Z,21.40
2022-11-23T18:25:27.805Z,22.30
2022-11-23T18:30:30.070Z,22.13
2022-11-23T18:35:30.842Z,21.42
2022-11-23T18:40:31.612Z,22.30
2022-11-23T18:45:33.794Z,23.17
2022-11-23T18:50:34.864Z,23.95
2022-11-23T18:55:35.915Z,23.27
2022-11-23T19:00:38.167Z,22.60
2022-11-23T19:05:39.225Z,25.40
2022-11-23T19:10:40.094Z,23.85
2022-11-23T19:15:42.304Z,24.13
2022-11-23T19:20:43.210Z,24.55
2022-11-23T19:25:44.061Z,25.63
2022-11-23T19:30:46.282Z,26.02
2022-11-23T19:35:47.170Z,26.33
2022-11-23T19:40:55.114Z,25.42
2022-11-23T19:45:57.956Z,25.83
2022-11-23T19:51:00.234Z,24.48
2022-11-23T19:56:02.844Z,24.13
2022-11-23T20:01:06.704Z,28.13
2022-11-23T20:06:10.119Z,26.42
2022-11-23T20:11:13.616Z,25.90
2022-11-23T20:16:17.711Z,25.77
2022-11-23T20:21:20.480Z,26.05
2022-11-23T20:26:21.298Z,25.63
2022-11-23T20:31:25.196Z,25.48
2022-11-23T20:36:27.532Z,25.55
2022-11-23T20:41:31.043Z,26.75
2022-11-23T20:47:00.507Z,24.00
2022-11-23T20:51:56.185Z,26.05
2022-11-23T20:56:59.965Z,24.92
2022-11-23T21:02:02.505Z,24.65
2022-11-23T21:07:03.346Z,26.10
2022-11-23T21:12:21.872Z,25.27
2022-11-23T21:17:24.066Z,26.05
2022-11-23T21:22:24.864Z,25.45
2022-11-23T21:27:28.172Z,28.17
2022-11-23T21:32:30.416Z,26.02
2022-11-23T21:37:31.541Z,24.20
2022-11-23T21:42:32.328Z,24.25
2022-11-23T21:47:35.173Z,24.63
2022-11-23T21:52:35.982Z,23.73
2022-11-23T21:57:36.734Z,24.05
2022-11-23T22:02:38.918Z,23.40
2022-11-23T22:07:39.799Z,25.25
2022-11-23T22:12:40.656Z,24.95
2022-11-23T22:17:42.806Z,23.50
2022-11-23T22:22:43.577Z,26.15
2022-11-23T22:27:44.328Z,24.52
2022-11-23T22:32:46.548Z,24.23
2022-11-23T22:37:47.379Z,24.98
2022-11-23T22:42:48.268Z,23.92
2022-11-23T22:47:50.428Z,24.00
2022-11-23T22:52:51.191Z,24.52
2022-11-23T22:57:51.929Z,23.60
2022-11-23T23:02:56.241Z,25.10
2022-11-23T23:07:57.284Z,25.38
2022-11-23T23:12:58.097Z,23.70
2022-11-23T23:18:00.248Z,25.65
2022-11-23T23:23:00.997Z,24.25
2022-11-23T23:28:01.845Z,24.02
2022-11-23T23:33:03.986Z,25.80
2022-11-23T23:38:04.816Z,25.40
2022-11-23T23:43:05.644Z,24.38
2022-11-23T23:48:07.877Z,23.58
2022-11-23T23:53:08.677Z,24.83
2022-11-23T23:58:09.512Z,24.95
